Time;durP1;ratioP1;P1;durP2;ratioP2;P2;SDS_P1;SDS_P2;PMS_P1;PMS_P2;Temp;Humidity;BMP_temperature;BMP_pressure;BME280_temperature;BME280_humidity;BME280_pressure;Samples;Min_cycle;Max_cycle;Signal;HPM_P1;HPM_P2
2021/07/14 00:26:01;;;;;;;3.73;2.40;;;15.10;99.90;;;;;;4847658;28;1958630;-70
2021/07/14 00:28:27;;;;;;;2.90;2.60;;;15.10;99.90;;;;;;4649602;29;20225;-70
2021/07/14 00:32:27;;;;;;;3.37;2.73;;;15.10;99.90;;;;;;5111147;27;20347;-70
2021/07/14 00:34:54;;;;;;;2.37;2.20;;;15.10;99.90;;;;;;5110801;28;20428;-69
2021/07/14 00:37:21;;;;;;;2.80;2.60;;;15.10;99.90;;;;;;5111043;28;20219;-70
2021/07/14 00:39:55;;;;;;;2.47;2.10;;;15.10;99.90;;;;;;5100212;28;20429;-69
2021/07/14 00:42:24;;;;;;;3.33;2.60;;;15.10;99.90;;;;;;5091103;28;20425;-69
2021/07/14 00:44:51;;;;;;;2.43;2.17;;;15.10;99.90;;;;;;5090407;28;20855;-69
2021/07/14 00:47:26;;;;;;;2.30;1.70;;;15.00;99.90;;;;;;5090210;28;20458;-70
2021/07/14 00:49:51;;;;;;;2.10;1.87;;;15.00;99.90;;;;;;5090286;28;20429;-69
2021/07/14 00:52:17;;;;;;;4.67;2.67;;;15.00;99.90;;;;;;5090390;28;20459;-69
2021/07/14 00:54:43;;;;;;;4.30;2.17;;;14.90;99.90;;;;;;5090237;28;20181;-69
2021/07/14 00:57:09;;;;;;;3.10;2.20;;;14.90;99.90;;;;;;5123001;28;20274;-70
2021/07/14 00:59:34;;;;;;;2.47;2.27;;;14.90;99.90;;;;;;5090248;28;20429;-69
2021/07/14 01:02:01;;;;;;;3.03;2.77;;;14.90;99.90;;;;;;5090432;28;20649;-69
2021/07/14 01:04:30;;;;;;;2.90;2.70;;;14.90;99.90;;;;;;5089969;28;20186;-70
2021/07/14 01:07:04;;;;;;;2.57;2.20;;;14.90;99.90;;;;;;5090311;28;20739;-70
2021/07/14 01:09:39;;;;;;;2.00;1.80;;;14.90;99.90;;;;;;5089908;28;20446;-69
2021/07/14 01:12:43;;;;;;;1.93;1.67;;;14.80;99.90;;;;;;5089707;28;20456;-69
2021/07/14 01:15:15;;;;;;;1.93;1.77;;;14.80;99.90;;;;;;5047947;28;20473;-69
2021/07/14 01:17:50;;;;;;;3.43;2.20;;;14.80;99.90;;;;;;5083693;28;20417;-69
2021/07/14 01:20:47;;;;;;;1.97;1.87;;;14.70;99.90;;;;;;5089950;28;20828;-69
2021/07/14 01:23:28;;;;;;;3.17;2.00;;;14.60;99.90;;;;;;5089916;28;20996;-69
2021/07/14 01:26:13;;;;;;;3.03;1.97;;;14.60;99.90;;;;;;5090001;28;20433;-69
2021/07/14 01:28:43;;;;;;;2.10;1.80;;;14.50;99.90;;;;;;5089367;28;20810;-69
2021/07/14 01:31:14;;;;;;;3.33;2.43;;;14.40;99.90;;;;;;5089445;28;20471;-69
2021/07/14 01:33:42;;;;;;;1.70;1.60;;;14.40;99.90;;;;;;5089802;28;20914;-69
2021/07/14 01:36:12;;;;;;;3.00;1.87;;;14.30;99.90;;;;;;5090000;28;20441;-69
2021/07/14 01:38:40;;;;;;;2.27;2.07;;;14.30;99.90;;;;;;5089245;28;20464;-69
2021/07/14 01:41:07;;;;;;;1.60;1.50;;;14.40;99.90;;;;;;5089418;28;20392;-69
2021/07/14 01:43:39;;;;;;;3.07;2.70;;;14.30;99.90;;;;;;5077431;28;20484;-69
2021/07/14 01:46:07;;;;;;;2.03;1.63;;;14.40;99.90;;;;;;5076281;28;20385;-69
2021/07/14 01:48:36;;;;;;;2.57;2.10;;;14.40;99.90;;;;;;5075205;28;20756;-69
2021/07/14 01:51:02;;;;;;;3.60;2.03;;;14.40;99.90;;;;;;5075912;28;20483;-69
2021/07/14 01:53:29;;;;;;;2.73;2.57;;;14.40;99.90;;;;;;5076087;28;20827;-69
2021/07/14 01:55:55;;;;;;;2.30;1.93;;;14.50;99.90;;;;;;5075940;28;20438;-69
2021/07/14 01:58:23;;;;;;;2.10;1.90;;;14.40;99.90;;;;;;5075105;28;20409;-70
2021/07/14 02:00:52;;;;;;;2.07;1.40;;;14.40;99.90;;;;;;5075771;28;20280;-70
2021/07/14 02:05:56;;;;;;;2.17;1.97;;;14.40;99.90;;;;;;5075823;28;20825;-70
2021/07/14 02:08:22;;;;;;;6.03;2.33;;;14.40;99.90;;;;;;5075139;28;20764;-70
2021/07/14 02:10:49;;;;;;;2.00;1.80;;;14.40;99.90;;;;;;5075299;28;20439;-70
2021/07/14 02:13:16;;;;;;;2.13;1.93;;;14.40;99.90;;;;;;5075741;28;20183;-70
2021/07/14 02:15:44;;;;;;;3.53;2.20;;;14.40;99.90;;;;;;5075936;28;20402;-70
2021/07/14 02:18:11;;;;;;;1.63;1.53;;;14.50;99.90;;;;;;5075307;28;20406;-70
2021/07/14 02:20:39;;;;;;;2.67;2.57;;;14.50;99.90;;;;;;5074885;28;20802;-70
2021/07/14 02:23:06;;;;;;;5.50;2.40;;;14.50;99.90;;;;;;5075350;28;20445;-70
2021/07/14 02:25:33;;;;;;;1.90;1.80;;;14.50;99.90;;;;;;5075403;28;20832;-70
2021/07/14 02:27:58;;;;;;;1.80;1.50;;;14.60;99.90;;;;;;5074900;28;20486;-70
2021/07/14 02:30:24;;;;;;;2.17;1.93;;;14.60;99.90;;;;;;5074745;28;20528;-70
2021/07/14 02:32:56;;;;;;;1.90;1.67;;;14.70;99.90;;;;;;5075165;28;20180;-70
2021/07/14 02:35:23;;;;;;;2.10;2.00;;;14.70;99.90;;;;;;5075248;28;20248;-70
2021/07/14 02:37:58;;;;;;;2.23;2.03;;;14.70;99.90;;;;;;5075098;28;20377;-70
2021/07/14 02:40:31;;;;;;;3.20;1.80;;;14.70;99.90;;;;;;5075144;28;20422;-70
2021/07/14 02:43:00;;;;;;;2.57;2.00;;;14.70;99.90;;;;;;5074650;28;20425;-70
2021/07/14 02:45:28;;;;;;;2.57;2.37;;;14.80;99.90;;;;;;5075126;28;20409;-70
2021/07/14 02:47:56;;;;;;;3.30;2.13;;;14.80;99.90;;;;;;5074438;28;20501;-70
2021/07/14 02:50:25;;;;;;;2.57;2.33;;;14.80;99.90;;;;;;5073416;28;20465;-70
2021/07/14 02:52:55;;;;;;;1.80;1.60;;;14.70;99.90;;;;;;5074535;28;20446;-70
2021/07/14 02:55:23;;;;;;;1.87;1.77;;;14.60;99.90;;;;;;5073957;28;20394;-70
2021/07/14 02:57:53;;;;;;;2.20;2.00;;;14.60;99.90;;;;;;5074325;28;20415;-70
2021/07/14 03:00:18;;;;;;;2.80;1.90;;;14.50;99.90;;;;;;5074632;28;20433;-70
2021/07/14 03:02:46;;;;;;;1.90;1.80;;;14.40;99.90;;;;;;5074376;28;20892;-70
2021/07/14 03:05:12;;;;;;;2.10;2.00;;;14.40;99.90;;;;;;5074596;28;20251;-69
2021/07/14 03:07:40;;;;;;;4.23;1.87;;;14.30;99.90;;;;;;5074218;28;20409;-70
2021/07/14 03:10:07;;;;;;;2.13;2.00;;;14.30;99.90;;;;;;5074268;28;20422;-71
2021/07/14 03:12:33;;;;;;;1.87;1.77;;;14.20;99.90;;;;;;5074011;28;20422;-70
2021/07/14 03:15:03;;;;;;;2.07;1.93;;;14.20;99.90;;;;;;5074692;28;20734;-70
2021/07/14 03:17:31;;;;;;;2.87;1.97;;;14.10;99.90;;;;;;5074114;28;20871;-70
2021/07/14 03:20:00;;;;;;;2.13;1.93;;;14.10;99.90;;;;;;5074236;28;20425;-70
2021/07/14 03:22:28;;;;;;;2.40;2.20;;;14.10;99.90;;;;;;5072564;28;20471;-70
2021/07/14 03:24:55;;;;;;;3.13;2.40;;;14.10;99.90;;;;;;5073981;28;20506;-70
2021/07/14 03:27:21;;;;;;;2.80;2.53;;;14.10;99.90;;;;;;5073689;28;20410;-70
2021/07/14 03:29:50;;;;;;;2.77;2.57;;;14.10;99.90;;;;;;5073800;28;20416;-70
2021/07/14 03:32:17;;;;;;;2.43;2.23;;;14.10;99.90;;;;;;5073204;28;20448;-70
2021/07/14 03:34:43;;;;;;;2.60;2.40;;;14.10;99.90;;;;;;5073724;28;20425;-70
2021/07/14 03:37:10;;;;;;;2.83;2.40;;;14.10;99.90;;;;;;5073478;28;20903;-71
2021/07/14 03:39:38;;;;;;;2.40;2.20;;;14.20;99.90;;;;;;5073623;28;20213;-70
2021/07/14 03:42:05;;;;;;;1.93;1.80;;;14.20;99.90;;;;;;5073352;28;20418;-70
2021/07/14 03:44:32;;;;;;;2.20;2.00;;;14.10;99.90;;;;;;5073613;28;20737;-70
2021/07/14 03:46:59;;;;;;;2.47;2.27;;;14.10;99.90;;;;;;5073797;28;20872;-70
2021/07/14 03:49:26;;;;;;;1.83;1.50;;;14.20;99.90;;;;;;5073537;28;20440;-70
2021/07/14 03:51:52;;;;;;;2.00;1.90;;;14.20;99.90;;;;;;5073189;28;20466;-70
2021/07/14 03:54:20;;;;;;;4.20;2.87;;;14.10;99.90;;;;;;5073729;28;20452;-70
2021/07/14 03:56:46;;;;;;;2.30;2.10;;;14.10;99.90;;;;;;5073729;28;20381;-70
2021/07/14 03:59:12;;;;;;;2.27;2.07;;;14.10;99.90;;;;;;5073151;28;20459;-70
2021/07/14 04:01:37;;;;;;;3.20;2.60;;;14.20;99.90;;;;;;5072084;28;20454;-70
2021/07/14 04:04:05;;;;;;;2.63;2.10;;;14.20;99.90;;;;;;5072351;28;20186;-70
2021/07/14 04:06:33;;;;;;;2.97;2.77;;;14.10;99.90;;;;;;5073624;28;20595;-70
2021/07/14 04:09:22;;;;;;;2.40;2.30;;;14.20;99.90;;;;;;5072904;28;20454;-70
2021/07/14 04:11:51;;;;;;;1.97;1.87;;;14.20;99.90;;;;;;5073227;28;20454;-70
2021/07/14 04:14:16;;;;;;;2.10;1.90;;;14.20;99.90;;;;;;5073468;28;20410;-70
2021/07/14 04:16:42;;;;;;;3.23;2.67;;;14.20;99.90;;;;;;5072348;28;20513;-69
2021/07/14 04:19:08;;;;;;;2.40;2.07;;;14.20;99.90;;;;;;5073067;28;20196;-70
2021/07/14 04:21:33;;;;;;;2.40;2.20;;;14.20;99.90;;;;;;5073093;28;20320;-70
2021/07/14 04:24:01;;;;;;;3.00;2.70;;;14.30;99.90;;;;;;5073637;28;20524;-70
2021/07/14 04:26:26;;;;;;;1.93;1.83;;;14.40;99.90;;;;;;5073008;28;20309;-70
2021/07/14 04:28:53;;;;;;;3.07;2.27;;;14.40;99.90;;;;;;5071736;28;20537;-70
2021/07/14 04:31:19;;;;;;;1.43;1.33;;;14.50;99.90;;;;;;5072967;28;20215;-70
2021/07/14 04:33:44;;;;;;;2.07;1.97;;;14.50;99.90;;;;;;5073332;28;20403;-70
2021/07/14 04:36:11;;;;;;;2.20;2.10;;;14.50;99.90;;;;;;5072915;28;20446;-70
2021/07/14 04:38:37;;;;;;;1.90;1.80;;;14.60;99.90;;;;;;5072707;28;20176;-70
2021/07/14 04:41:04;;;;;;;2.67;2.43;;;14.60;99.90;;;;;;5073208;28;20403;-70
2021/07/14 04:43:30;;;;;;;2.00;1.80;;;14.60;99.90;;;;;;5073229;28;20766;-70
2021/07/14 04:45:55;;;;;;;3.00;2.80;;;14.70;99.90;;;;;;5072963;28;20505;-71
2021/07/14 04:48:22;;;;;;;2.43;2.30;;;14.80;99.90;;;;;;5072542;28;20184;-71
2021/07/14 04:50:48;;;;;;;3.47;2.63;;;14.80;99.90;;;;;;5072508;28;20197;-69
2021/07/14 04:53:14;;;;;;;2.27;2.07;;;14.80;99.90;;;;;;5072473;28;20403;-70
2021/07/14 04:55:39;;;;;;;3.77;2.00;;;14.90;99.90;;;;;;5072710;28;20408;-71
2021/07/14 04:58:05;;;;;;;2.60;1.90;;;14.90;99.90;;;;;;5072522;28;20692;-70
2021/07/14 05:00:31;;;;;;;2.30;2.20;;;14.90;99.90;;;;;;5073053;28;20196;-70
2021/07/14 05:02:56;;;;;;;1.77;1.67;;;14.90;99.90;;;;;;5073192;28;20173;-70
2021/07/14 05:05:22;;;;;;;3.00;2.03;;;14.90;99.90;;;;;;5073019;28;20172;-70
2021/07/14 05:07:49;;;;;;;2.57;2.17;;;15.00;99.90;;;;;;5072278;28;20184;-70
2021/07/14 05:10:16;;;;;;;1.77;1.67;;;15.00;99.90;;;;;;5072526;28;20469;-70
2021/07/14 05:12:42;;;;;;;1.73;1.63;;;15.10;99.90;;;;;;5072864;28;20406;-70
2021/07/14 05:15:09;;;;;;;6.53;2.80;;;15.20;99.90;;;;;;5072756;28;20548;-70
2021/07/14 05:17:35;;;;;;;4.93;2.40;;;15.20;99.90;;;;;;5073127;28;20430;-70
2021/07/14 05:20:00;;;;;;;3.60;2.57;;;15.20;99.90;;;;;;5076395;28;20415;-70
2021/07/14 05:22:26;;;;;;;1.90;1.80;;;15.20;99.90;;;;;;5076540;28;20647;-70
2021/07/14 05:24:52;;;;;;;5.50;2.17;;;15.30;99.90;;;;;;5076419;28;20168;-70
2021/07/14 05:27:17;;;;;;;2.37;2.17;;;15.20;99.90;;;;;;5075651;28;20180;-71
2021/07/14 05:29:43;;;;;;;2.60;2.40;;;15.30;99.90;;;;;;5076457;28;20193;-70
2021/07/14 05:32:09;;;;;;;2.07;1.40;;;15.30;99.90;;;;;;5074913;28;20261;-70
2021/07/14 05:34:34;;;;;;;2.30;2.10;;;15.30;99.90;;;;;;5076608;28;20698;-70
2021/07/14 05:37:00;;;;;;;2.63;1.57;;;15.30;99.90;;;;;;5075744;28;20533;-71
2021/07/14 05:39:26;;;;;;;1.73;1.63;;;15.40;99.90;;;;;;5075896;28;20219;-70
2021/07/14 05:41:51;;;;;;;2.47;1.90;;;15.40;99.90;;;;;;5076097;28;20184;-71
2021/07/14 05:44:17;;;;;;;2.63;1.90;;;15.40;99.90;;;;;;5076328;28;20196;-70
2021/07/14 05:46:44;;;;;;;2.27;2.17;;;15.40;99.90;;;;;;5075875;28;20184;-71
2021/07/14 05:49:10;;;;;;;3.40;3.10;;;15.40;99.90;;;;;;5075489;28;20192;-71
2021/07/14 05:51:36;;;;;;;2.80;2.60;;;15.40;99.90;;;;;;5075736;28;21040;-70
2021/07/14 05:54:02;;;;;;;2.03;1.83;;;15.40;99.90;;;;;;5075934;28;20496;-71
2021/07/14 05:56:28;;;;;;;2.33;2.13;;;15.40;99.90;;;;;;5074310;28;20696;-71
2021/07/14 05:58:54;;;;;;;1.60;1.50;;;15.50;99.90;;;;;;5075677;28;20393;-71
2021/07/14 06:01:21;;;;;;;2.30;1.63;;;15.50;99.90;;;;;;5075699;28;20460;-71
2021/07/14 06:03:47;;;;;;;1.70;1.70;;;15.50;99.90;;;;;;5074976;28;20180;-70
2021/07/14 06:06:17;;;;;;;2.57;2.37;;;15.60;99.90;;;;;;5075454;28;20781;-71
2021/07/14 06:08:43;;;;;;;2.03;1.90;;;15.60;99.90;;;;;;5075305;28;20399;-71
2021/07/14 06:11:10;;;;;;;1.90;1.80;;;15.60;99.90;;;;;;5075625;28;20410;-70
2021/07/14 06:13:36;;;;;;;2.37;2.17;;;15.70;99.90;;;;;;5075462;28;20484;-72
2021/07/14 06:16:01;;;;;;;2.67;2.17;;;15.70;99.90;;;;;;5075680;28;20384;-69
2021/07/14 06:18:28;;;;;;;27.67;2.57;;;15.70;99.90;;;;;;5074811;28;20422;-70
2021/07/14 06:20:54;;;;;;;1.80;1.70;;;15.70;99.90;;;;;;5075366;28;20557;-71
2021/07/14 06:23:19;;;;;;;2.17;2.07;;;15.80;99.90;;;;;;5074189;28;20468;-72
2021/07/14 06:25:45;;;;;;;1.83;1.70;;;15.80;99.90;;;;;;5075356;28;20180;-71
2021/07/14 06:28:14;;;;;;;2.30;2.00;;;15.90;99.90;;;;;;5074418;28;20434;-72
2021/07/14 06:30:46;;;;;;;1.57;1.47;;;15.90;99.90;;;;;;5073708;28;20557;-72
2021/07/14 06:33:12;;;;;;;3.03;1.90;;;16.10;99.90;;;;;;5075127;28;20426;-69
2021/07/14 06:35:38;;;;;;;1.90;1.80;;;16.10;99.90;;;;;;5074697;28;20412;-63
2021/07/14 06:38:04;;;;;;;1.70;1.60;;;16.20;99.90;;;;;;5073621;28;20398;-64
2021/07/14 06:40:31;;;;;;;2.20;2.00;;;16.30;99.90;;;;;;5074116;28;20208;-68
2021/07/14 06:42:57;;;;;;;2.77;2.03;;;16.30;99.90;;;;;;5070678;28;20447;-66
2021/07/14 06:45:24;;;;;;;3.40;2.07;;;16.30;99.90;;;;;;5077712;28;20426;-68
2021/07/14 06:47:50;;;;;;;7.27;5.03;;;16.40;99.90;;;;;;5075210;28;20493;-67
2021/07/14 06:50:16;;;;;;;2.33;2.20;;;16.40;99.90;;;;;;5074067;28;20453;-66
2021/07/14 06:52:43;;;;;;;1.90;1.80;;;16.50;99.90;;;;;;5079482;28;20385;-66
2021/07/14 06:55:10;;;;;;;2.07;1.97;;;16.60;99.90;;;;;;5074335;28;20386;-66
2021/07/14 06:57:36;;;;;;;2.57;2.37;;;16.60;99.90;;;;;;5077388;28;20916;-67
2021/07/14 07:00:07;;;;;;;2.23;1.90;;;16.60;99.90;;;;;;5084367;28;20427;-69
2021/07/14 07:02:32;;;;;;;2.27;2.17;;;16.60;99.90;;;;;;5071918;28;20399;-69
2021/07/14 07:04:59;;;;;;;2.03;1.93;;;16.60;99.90;;;;;;5094640;28;20907;-69
2021/07/14 07:07:25;;;;;;;9.90;3.47;;;16.60;99.90;;;;;;5080929;28;20230;-66
2021/07/14 07:09:52;;;;;;;3.33;2.13;;;16.60;99.90;;;;;;5074182;28;20435;-67
2021/07/14 07:12:18;;;;;;;2.40;2.20;;;16.70;99.90;;;;;;5078404;28;20191;-64
2021/07/14 07:14:44;;;;;;;2.10;2.00;;;16.70;99.90;;;;;;5083467;28;20385;-68
2021/07/14 07:17:10;;;;;;;2.03;1.87;;;16.80;99.90;;;;;;5070945;28;20948;-63
2021/07/14 07:19:36;;;;;;;2.03;1.90;;;16.90;99.90;;;;;;5072891;28;20428;-67
2021/07/14 07:22:03;;;;;;;1.90;1.80;;;16.90;99.90;;;;;;5078778;28;20419;-66
2021/07/14 07:24:29;;;;;;;2.47;2.27;;;16.90;99.90;;;;;;5081709;28;20209;-68
2021/07/14 07:26:55;;;;;;;3.10;1.73;;;16.90;99.90;;;;;;5075336;28;20425;-67
2021/07/14 07:29:21;;;;;;;2.20;2.00;;;16.90;99.90;;;;;;5076075;28;20517;-68
2021/07/14 07:31:47;;;;;;;2.17;2.07;;;17.00;99.90;;;;;;5082471;28;20465;-67
2021/07/14 07:34:15;;;;;;;2.20;2.07;;;17.00;99.90;;;;;;5080866;28;20216;-68
2021/07/14 07:36:40;;;;;;;2.53;1.93;;;17.00;99.90;;;;;;5073287;28;20421;-67
2021/07/14 07:39:07;;;;;;;1.60;1.50;;;17.10;99.90;;;;;;5085145;28;20445;-66
2021/07/14 07:41:33;;;;;;;2.20;2.00;;;17.00;99.90;;;;;;5073943;28;20209;-67
2021/07/14 07:43:58;;;;;;;1.87;1.77;;;17.10;99.90;;;;;;5080452;28;20439;-68
2021/07/14 07:46:30;;;;;;;3.10;2.50;;;17.10;99.90;;;;;;5085078;28;20472;-65
2021/07/14 07:48:56;;;;;;;1.63;1.53;;;17.10;99.90;;;;;;5078495;28;20205;-67
2021/07/14 07:51:22;;;;;;;1.77;1.67;;;17.00;99.90;;;;;;5080426;28;20452;-67
2021/07/14 07:53:47;;;;;;;3.00;1.67;;;17.10;99.90;;;;;;5071228;28;20166;-65
2021/07/14 07:56:13;;;;;;;2.80;1.93;;;17.10;99.90;;;;;;5078719;28;20181;-65
2021/07/14 07:58:39;;;;;;;2.27;2.07;;;17.10;99.90;;;;;;5070922;28;20174;-66
2021/07/14 08:01:05;;;;;;;17.00;2.50;;;17.00;99.90;;;;;;5067060;28;20423;-66
2021/07/14 08:03:30;;;;;;;2.27;2.17;;;16.90;99.90;;;;;;5071861;28;20586;-67
2021/07/14 08:05:57;;;;;;;1.97;1.87;;;17.00;99.90;;;;;;5069160;28;20534;-67
2021/07/14 08:08:22;;;;;;;1.90;1.80;;;16.90;99.90;;;;;;5073648;28;20176;-66
2021/07/14 08:10:48;;;;;;;2.70;1.83;;;16.90;99.90;;;;;;5093010;28;20465;-66
2021/07/14 08:13:15;;;;;;;3.90;2.53;;;16.80;99.90;;;;;;5079996;28;20287;-66
2021/07/14 08:15:40;;;;;;;2.03;1.93;;;16.70;99.90;;;;;;5077324;28;20461;-66
2021/07/14 08:18:06;;;;;;;2.03;1.90;;;16.70;99.90;;;;;;5070528;28;20418;-66
2021/07/14 08:20:32;;;;;;;1.90;1.77;;;16.70;99.90;;;;;;5075179;28;20196;-65
2021/07/14 08:22:58;;;;;;;2.50;2.30;;;16.70;99.90;;;;;;5076113;28;20200;-66
2021/07/14 08:25:24;;;;;;;2.67;2.43;;;16.60;99.90;;;;;;5091620;28;20418;-66
2021/07/14 08:27:50;;;;;;;2.10;2.00;;;16.60;99.90;;;;;;5079281;28;20223;-67
2021/07/14 08:30:16;;;;;;;3.43;3.13;;;16.50;99.90;;;;;;5071892;28;20435;-65
2021/07/14 08:32:42;;;;;;;2.30;2.10;;;16.40;99.90;;;;;;5072796;28;20426;-64
2021/07/14 08:35:09;;;;;;;2.50;2.30;;;16.30;99.90;;;;;;5072811;28;20456;-66
2021/07/14 08:37:36;;;;;;;2.70;2.50;;;16.30;99.90;;;;;;5084641;28;20183;-65
2021/07/14 08:40:04;;;;;;;2.33;1.77;;;16.20;99.90;;;;;;5082533;28;20434;-66
2021/07/14 08:42:33;;;;;;;1.83;1.73;;;16.30;99.90;;;;;;5069965;28;20731;-65
2021/07/14 08:45:03;;;;;;;3.20;2.40;;;16.30;99.90;;;;;;5071018;28;20406;-65
2021/07/14 08:47:29;;;;;;;2.87;2.00;;;16.20;99.90;;;;;;5072422;28;20739;-65
2021/07/14 08:49:56;;;;;;;3.10;2.80;;;16.20;99.90;;;;;;5072349;28;20409;-65
2021/07/14 08:52:22;;;;;;;3.77;2.33;;;16.10;99.90;;;;;;5073025;28;20889;-64
2021/07/14 08:54:48;;;;;;;3.43;3.13;;;16.10;99.90;;;;;;5076770;28;20494;-65
2021/07/14 08:57:17;;;;;;;2.90;2.70;;;16.10;99.90;;;;;;5076274;28;20810;-65
2021/07/14 08:59:45;;;;;;;2.33;2.13;;;16.10;99.90;;;;;;5076713;28;20773;-67
2021/07/14 09:02:13;;;;;;;2.20;2.10;;;16.20;99.90;;;;;;5074647;28;20400;-65
2021/07/14 09:04:39;;;;;;;2.33;2.13;;;16.30;99.90;;;;;;5081836;28;20438;-66
2021/07/14 09:07:07;;;;;;;2.17;1.97;;;16.30;99.90;;;;;;5082238;28;20410;-65
2021/07/14 09:09:34;;;;;;;4.17;2.40;;;16.40;99.90;;;;;;5090168;28;20438;-65
2021/07/14 09:12:01;;;;;;;2.23;2.13;;;16.50;99.90;;;;;;5085750;28;20570;-66
2021/07/14 09:14:35;;;;;;;2.57;2.37;;;16.50;99.90;;;;;;5088403;28;20410;-64
2021/07/14 09:17:17;;;;;;;2.30;1.93;;;16.50;99.90;;;;;;5080046;28;20418;-66
2021/07/14 09:19:43;;;;;;;2.70;2.57;;;16.50;99.90;;;;;;5073828;28;20821;-65
2021/07/14 09:22:30;;;;;;;2.40;2.20;;;16.60;99.90;;;;;;5076533;28;20541;-65
2021/07/14 09:24:58;;;;;;;2.20;2.10;;;16.60;99.90;;;;;;5092113;28;20187;-67
2021/07/14 09:27:28;;;;;;;5.77;2.47;;;16.60;99.90;;;;;;5074646;28;20565;-65
2021/07/14 09:30:12;;;;;;;2.63;2.43;;;16.60;99.90;;;;;;5079952;28;20793;-66
2021/07/14 09:32:55;;;;;;;2.20;2.10;;;16.60;99.90;;;;;;5050554;28;20576;-65
2021/07/14 09:35:45;;;;;;;2.27;2.10;;;16.60;99.90;;;;;;5076078;28;20440;-67
2021/07/14 09:38:22;;;;;;;2.47;2.23;;;16.60;99.90;;;;;;5056942;28;20796;-66
2021/07/14 09:40:51;;;;;;;2.10;2.00;;;16.70;99.90;;;;;;5091496;28;20440;-67
2021/07/14 09:43:23;;;;;;;1.80;1.67;;;16.80;99.90;;;;;;5082766;28;20923;-65
2021/07/14 09:45:59;;;;;;;5.03;3.30;;;17.00;99.90;;;;;;5075653;28;20392;-65
2021/07/14 09:48:27;;;;;;;1.93;1.83;;;17.30;99.90;;;;;;5075390;28;20908;-64
2021/07/14 09:50:58;;;;;;;3.00;2.70;;;17.60;99.90;;;;;;5081311;28;20439;-67
2021/07/14 09:53:27;;;;;;;2.47;2.20;;;17.90;99.90;;;;;;5074121;28;20450;-67
2021/07/14 09:55:56;;;;;;;2.10;2.00;;;18.10;99.90;;;;;;5086347;28;20434;-66
2021/07/14 09:58:27;;;;;;;2.50;2.20;;;18.30;99.90;;;;;;5080402;28;20404;-66
2021/07/14 10:01:04;;;;;;;2.57;2.37;;;18.60;99.90;;;;;;5082199;28;21025;-66
2021/07/14 10:03:34;;;;;;;1.90;1.77;;;18.80;99.90;;;;;;5094396;28;20882;-65
2021/07/14 10:06:13;;;;;;;2.40;2.20;;;19.00;99.90;;;;;;5075037;28;20415;-66
2021/07/14 10:08:40;;;;;;;2.00;1.90;;;19.00;99.90;;;;;;5072883;28;20437;-67
2021/07/14 10:11:12;;;;;;;2.20;2.00;;;19.20;99.90;;;;;;5071332;28;20450;-68
2021/07/14 10:14:20;;;;;;;4.00;2.03;;;19.40;99.90;;;;;;5061654;28;20419;-67
2021/07/14 10:16:51;;;;;;;2.60;2.13;;;19.60;99.90;;;;;;5072694;28;20926;-66
2021/07/14 10:19:18;;;;;;;3.30;2.00;;;20.30;99.90;;;;;;5075000;28;20464;-67
2021/07/14 10:21:45;;;;;;;3.83;2.40;;;20.80;99.90;;;;;;5075285;28;20454;-67
2021/07/14 10:24:13;;;;;;;1.90;1.80;;;21.40;99.90;;;;;;5075475;28;20516;-67
2021/07/14 10:26:42;;;;;;;2.60;2.17;;;22.10;99.90;;;;;;5076845;28;20419;-67
2021/07/14 10:29:09;;;;;;;2.37;2.17;;;22.70;99.90;;;;;;5077616;28;20439;-67
2021/07/14 10:31:36;;;;;;;2.40;2.13;;;23.20;99.90;;;;;;5086269;28;20552;-67
2021/07/14 10:34:07;;;;;;;2.20;2.07;;;23.60;99.90;;;;;;5075798;28;20524;-68
2021/07/14 10:36:38;;;;;;;3.37;2.10;;;24.00;99.90;;;;;;5078571;28;20377;-66
2021/07/14 10:39:14;;;;;;;3.73;2.70;;;24.50;99.90;;;;;;5074462;28;20420;-67
2021/07/14 10:41:41;;;;;;;2.13;1.93;;;24.80;99.90;;;;;;5066436;28;20421;-66
2021/07/14 10:44:25;;;;;;;2.40;1.57;;;25.00;99.90;;;;;;5059222;28;20474;-66
2021/07/14 10:46:51;;;;;;;2.20;2.00;;;25.10;99.90;;;;;;5064201;28;20778;-66
2021/07/14 10:49:17;;;;;;;1.80;1.70;;;25.00;99.90;;;;;;5073128;28;20930;-66
2021/07/14 10:51:43;;;;;;;2.20;1.90;;;24.80;99.90;;;;;;5072560;28;20536;-67
2021/07/14 10:54:11;;;;;;;1.87;1.73;;;24.80;99.90;;;;;;5069670;28;20409;-66
2021/07/14 10:56:42;;;;;;;1.90;1.80;;;24.70;99.90;;;;;;5066356;28;20547;-65
2021/07/14 10:59:09;;;;;;;2.23;2.03;;;24.70;99.90;;;;;;5067322;28;20922;-66
2021/07/14 11:04:26;;;;;;;2.07;1.80;;;24.60;99.40;;;;;;5717531;22;21303;-64
2021/07/14 11:06:55;;;;;;;4.50;2.20;;;24.40;99.60;;;;;;5023122;28;20389;-64
2021/07/14 11:09:48;;;;;;;3.07;1.67;;;24.20;99.70;;;;;;5032169;28;20745;-65
2021/07/14 11:12:28;;;;;;;3.43;2.10;;;23.90;99.90;;;;;;5014326;28;20539;-66
2021/07/14 11:14:58;;;;;;;2.33;2.13;;;23.70;99.90;;;;;;5013579;28;20446;-66
2021/07/14 11:17:32;;;;;;;2.30;2.20;;;23.60;99.90;;;;;;5014307;28;20468;-66
2021/07/14 11:20:10;;;;;;;6.17;2.30;;;23.30;99.90;;;;;;5014410;28;20464;-66
2021/07/14 11:22:45;;;;;;;2.30;2.13;;;23.10;99.90;;;;;;5021681;28;20411;-67
2021/07/14 11:25:19;;;;;;;1.97;1.87;;;23.20;99.90;;;;;;5034118;28;20467;-66
2021/07/14 11:27:48;;;;;;;1.50;1.40;;;23.20;99.70;;;;;;5033873;28;20405;-67
2021/07/14 11:30:13;;;;;;;2.00;1.90;;;23.20;99.90;;;;;;5032636;28;20911;-66
2021/07/14 11:32:42;;;;;;;1.47;1.37;;;23.40;99.90;;;;;;5034412;28;20440;-67
2021/07/14 11:35:10;;;;;;;1.80;1.53;;;23.60;99.90;;;;;;5033179;28;20186;-66
2021/07/14 11:37:41;;;;;;;1.97;1.20;;;23.80;99.90;;;;;;5033500;28;20459;-65
2021/07/14 11:40:21;;;;;;;1.43;1.33;;;24.00;99.50;;;;;;5034032;28;20430;-66
2021/07/14 11:42:51;;;;;;;1.80;1.70;;;24.20;99.00;;;;;;5033776;28;20396;-65
2021/07/14 11:45:18;;;;;;;2.30;1.90;;;24.40;99.30;;;;;;5028812;28;20415;-65
2021/07/14 11:47:43;;;;;;;1.90;1.70;;;24.70;99.80;;;;;;5022210;28;20390;-72
2021/07/14 11:50:11;;;;;;;1.70;1.60;;;24.80;99.20;;;;;;5022071;28;20466;-71
2021/07/14 11:52:44;;;;;;;4.23;1.20;;;25.00;97.90;;;;;;5023410;28;20195;-72
2021/07/14 11:55:25;;;;;;;3.07;1.50;;;24.90;97.00;;;;;;5022883;28;20431;-71
2021/07/14 11:57:51;;;;;;;1.93;1.83;;;24.60;97.50;;;;;;5031181;28;20395;-71
2021/07/14 12:00:17;;;;;;;1.50;1.40;;;24.40;98.60;;;;;;5027353;28;20400;-69
2021/07/14 12:03:05;;;;;;;1.30;1.30;;;24.30;97.70;;;;;;5032300;28;20427;-71
2021/07/14 12:05:35;;;;;;;1.40;1.30;;;24.20;98.30;;;;;;5025295;28;20431;-69
2021/07/14 12:08:12;;;;;;;3.40;3.10;;;24.30;99.30;;;;;;5013569;28;20430;-70
2021/07/14 12:10:41;;;;;;;1.67;1.57;;;24.40;99.10;;;;;;5030981;28;20474;-66
2021/07/14 12:13:09;;;;;;;1.80;1.20;;;24.50;98.10;;;;;;5033651;28;20384;-64
2021/07/14 12:15:44;;;;;;;1.10;1.00;;;24.50;96.70;;;;;;5024034;28;20437;-68
2021/07/14 12:18:11;;;;;;;1.43;1.40;;;24.50;96.90;;;;;;5015873;28;20400;-67
2021/07/14 12:20:36;;;;;;;1.70;1.50;;;24.70;97.30;;;;;;5023775;28;20443;-68
2021/07/14 12:23:14;;;;;;;3.20;1.60;;;24.90;97.40;;;;;;5025951;28;20779;-67
2021/07/14 12:25:40;;;;;;;1.40;1.30;;;25.10;96.00;;;;;;5020830;28;20171;-68
2021/07/14 12:28:10;;;;;;;1.83;1.33;;;25.10;96.50;;;;;;5022136;28;20384;-70
2021/07/14 12:30:40;;;;;;;1.60;1.50;;;24.90;95.30;;;;;;5030765;28;20194;-68
2021/07/14 12:33:08;;;;;;;1.27;1.17;;;24.80;95.70;;;;;;5018655;28;20831;-68
2021/07/14 12:35:40;;;;;;;0.80;0.80;;;24.60;94.90;;;;;;5023199;28;20424;-69
2021/07/14 12:38:11;;;;;;;1.97;1.87;;;24.40;95.70;;;;;;5031248;28;20460;-68
2021/07/14 12:40:48;;;;;;;2.07;1.93;;;24.40;95.50;;;;;;5030731;28;20415;-68
2021/07/14 12:43:18;;;;;;;1.90;1.67;;;24.30;95.60;;;;;;5032425;28;20405;-70
2021/07/14 12:45:49;;;;;;;1.10;1.10;;;24.30;95.60;;;;;;5033137;28;20521;-70
2021/07/14 12:48:27;;;;;;;0.97;0.97;;;24.30;95.10;;;;;;5012776;28;20388;-72
2021/07/14 12:50:54;;;;;;;1.40;1.40;;;24.20;95.40;;;;;;5020650;28;20467;-71
2021/07/14 12:53:21;;;;;;;3.70;1.40;;;24.20;94.80;;;;;;5027084;28;20431;-73
2021/07/14 12:55:48;;;;;;;2.77;2.20;;;24.20;95.20;;;;;;5028546;28;20391;-72
2021/07/14 12:58:20;;;;;;;1.50;1.40;;;24.10;94.80;;;;;;5025796;28;20495;-72
2021/07/14 13:00:48;;;;;;;1.77;1.60;;;24.10;95.90;;;;;;5027979;28;20433;-70
2021/07/14 13:03:26;;;;;;;1.30;1.20;;;24.00;96.80;;;;;;5031784;28;20416;-69
2021/07/14 13:05:52;;;;;;;0.97;0.93;;;24.10;96.00;;;;;;5019788;28;20422;-72
2021/07/14 13:08:21;;;;;;;1.70;1.60;;;24.10;95.00;;;;;;5012981;28;20400;-69
2021/07/14 13:10:53;;;;;;;1.00;1.00;;;24.20;95.10;;;;;;5021195;28;20443;-70
2021/07/14 13:13:19;;;;;;;1.80;1.70;;;24.20;96.20;;;;;;5028714;28;20775;-70
2021/07/14 13:15:52;;;;;;;1.73;1.63;;;24.20;96.10;;;;;;5031981;28;20392;-71
2021/07/14 13:18:18;;;;;;;1.33;1.23;;;24.30;96.40;;;;;;5032211;28;20458;-70
2021/07/14 13:20:53;;;;;;;1.50;1.40;;;24.30;96.50;;;;;;5032804;28;20426;-68
2021/07/14 13:23:24;;;;;;;1.67;1.57;;;24.20;96.50;;;;;;5030213;28;20404;-70
2021/07/14 13:25:52;;;;;;;1.40;1.30;;;24.20;95.60;;;;;;5029051;28;20429;-71